createdAt,value
2023-05-04T00:00:13.836Z,0.00
2023-05-04T00:01:13.823Z,0.00
2023-05-04T00:02:13.841Z,0.00
2023-05-04T00:03:13.901Z,0.00
2023-05-04T00:04:13.838Z,0.00
2023-05-04T00:05:13.761Z,0.00
2023-05-04T00:06:13.756Z,0.00
2023-05-04T00:07:13.745Z,0.00
2023-05-04T00:08:13.746Z,0.00
2023-05-04T00:09:13.734Z,0.00
2023-05-04T00:10:13.736Z,0.00
2023-05-04T00:11:13.710Z,0.00
2023-05-04T00:12:13.713Z,0.00
2023-05-04T00:13:13.693Z,0.00
2023-05-04T00:14:13.695Z,0.00
2023-05-04T00:15:13.676Z,0.00
2023-05-04T00:16:13.754Z,0.00
2023-05-04T00:17:13.654Z,0.00
2023-05-04T00:18:13.631Z,0.00
2023-05-04T00:19:13.667Z,0.00
2023-05-04T00:20:13.664Z,0.00
2023-05-04T00:21:13.601Z,0.00
2023-05-04T00:22:13.601Z,0.00
2023-05-04T00:23:13.581Z,0.00
2023-05-04T00:24:13.603Z,0.00
2023-05-04T00:25:13.568Z,0.00
2023-05-04T00:26:13.552Z,0.00
2023-05-04T00:27:13.577Z,0.00
2023-05-04T00:28:13.534Z,0.00
2023-05-04T00:29:13.529Z,0.00
2023-05-04T00:30:13.517Z,0.00
2023-05-04T00:31:13.523Z,0.00
2023-05-04T00:32:13.497Z,0.00
2023-05-04T00:33:13.477Z,0.00
2023-05-04T00:34:13.465Z,0.00
2023-05-04T00:35:13.450Z,0.00
2023-05-04T00:36:13.440Z,0.00
2023-05-04T00:37:13.425Z,0.00
2023-05-04T00:38:13.436Z,0.00
2023-05-04T00:39:13.417Z,0.00
2023-05-04T00:40:13.409Z,0.00
2023-05-04T00:41:13.381Z,0.00
2023-05-04T00:42:13.381Z,0.00
2023-05-04T00:43:13.360Z,0.00
2023-05-04T00:44:13.362Z,0.00
2023-05-04T00:45:13.342Z,0.00
2023-05-04T00:46:13.349Z,0.00
2023-05-04T00:47:13.354Z,0.00
2023-05-04T00:48:13.343Z,0.00
2023-05-04T00:49:13.305Z,0.00
2023-05-04T00:50:13.319Z,0.00
2023-05-04T00:51:13.311Z,0.00
2023-05-04T00:52:13.291Z,0.00
2023-05-04T00:53:13.257Z,0.00
2023-05-04T00:54:13.256Z,0.00
2023-05-04T00:55:13.234Z,0.00
2023-05-04T00:56:13.227Z,0.00
2023-05-04T00:57:13.249Z,0.00
2023-05-04T00:58:13.211Z,0.00
2023-05-04T00:59:13.186Z,0.00
2023-05-04T01:00:13.185Z,0.00
2023-05-04T01:01:13.208Z,0.00
2023-05-04T01:02:13.173Z,0.00
2023-05-04T01:03:13.258Z,0.00
2023-05-04T01:04:13.198Z,0.00
2023-05-04T01:05:13.127Z,0.00
2023-05-04T01:06:13.124Z,0.00
2023-05-04T01:07:13.105Z,0.00
2023-05-04T01:08:13.108Z,0.00
2023-05-04T01:09:13.103Z,0.00
2023-05-04T01:10:13.088Z,0.00
2023-05-04T01:11:13.058Z,0.00
2023-05-04T01:12:13.056Z,0.00
2023-05-04T01:13:13.236Z,0.00
2023-05-04T01:14:13.051Z,0.00
2023-05-04T01:15:13.026Z,0.00
2023-05-04T01:16:13.071Z,0.00
2023-05-04T01:17:13.058Z,0.00
2023-05-04T01:18:13.016Z,0.00
2023-05-04T01:19:12.991Z,0.00
2023-05-04T01:20:12.965Z,0.00
2023-05-04T01:21:12.964Z,0.00
2023-05-04T01:22:12.955Z,0.00
2023-05-04T01:23:12.942Z,0.00
2023-05-04T01:24:12.947Z,0.00
2023-05-04T01:25:12.918Z,0.00
2023-05-04T01:26:12.906Z,0.00
2023-05-04T01:27:12.912Z,0.00
2023-05-04T01:28:12.909Z,0.00
2023-05-04T01:29:12.862Z,0.00
2023-05-04T01:30:12.878Z,0.00
2023-05-04T01:31:12.879Z,0.00
2023-05-04T01:32:12.833Z,0.00
2023-05-04T01:33:12.828Z,0.00
2023-05-04T01:34:12.825Z,0.00
2023-05-04T01:35:12.808Z,0.00
2023-05-04T01:36:12.802Z,0.00
2023-05-04T01:37:12.796Z,0.00
2023-05-04T01:38:12.776Z,0.00
2023-05-04T01:39:12.774Z,0.00
2023-05-04T01:40:12.767Z,0.00
2023-05-04T01:41:12.742Z,0.00
2023-05-04T01:42:12.727Z,0.00
2023-05-04T01:43:12.722Z,0.00
2023-05-04T01:44:12.707Z,0.00
2023-05-04T01:45:12.712Z,0.00
2023-05-04T01:46:12.780Z,0.00
2023-05-04T01:47:12.669Z,0.00
2023-05-04T01:48:12.658Z,0.00
2023-05-04T01:49:12.657Z,0.00
2023-05-04T01:50:12.652Z,0.00
2023-05-04T01:51:12.632Z,0.00
2023-05-04T01:52:12.631Z,0.00
2023-05-04T01:53:12.609Z,0.00
2023-05-04T01:54:12.615Z,0.00
2023-05-04T01:55:12.594Z,0.00
2023-05-04T01:56:12.579Z,0.00
2023-05-04T01:57:12.572Z,0.00
2023-05-04T01:58:12.566Z,0.00
2023-05-04T01:59:12.538Z,0.00
2023-05-04T02:00:12.546Z,0.00
2023-05-04T02:01:12.549Z,0.00
2023-05-04T02:02:12.511Z,0.00
2023-05-04T02:03:12.561Z,0.00
2023-05-04T02:04:12.553Z,0.00
2023-05-04T02:05:12.476Z,0.00
2023-05-04T02:06:12.485Z,0.00
2023-05-04T02:07:12.453Z,0.00
2023-05-04T02:08:12.448Z,0.00
2023-05-04T02:09:12.453Z,0.00
2023-05-04T02:10:12.448Z,0.00
2023-05-04T02:11:12.411Z,0.00
2023-05-04T02:12:12.408Z,0.00
2023-05-04T02:13:12.519Z,0.00
2023-05-04T02:14:12.378Z,0.00
2023-05-04T02:15:12.376Z,0.00
2023-05-04T02:16:12.431Z,0.00
2023-05-04T02:17:12.385Z,0.00
2023-05-04T02:18:12.405Z,0.00
2023-05-04T02:19:12.321Z,0.00
2023-05-04T02:20:12.327Z,0.00
2023-05-04T02:21:12.311Z,0.00
2023-05-04T02:22:12.303Z,0.00
2023-05-04T02:23:12.302Z,0.00
2023-05-04T02:24:12.276Z,0.00
2023-05-04T02:25:12.293Z,0.00
2023-05-04T02:26:12.258Z,0.00
2023-05-04T02:27:12.241Z,0.00
2023-05-04T02:28:12.262Z,0.00
2023-05-04T02:29:12.224Z,0.00
2023-05-04T02:30:12.223Z,0.00
2023-05-04T02:31:12.215Z,0.00
2023-05-04T02:32:12.196Z,0.00
2023-05-04T02:33:12.177Z,0.00
2023-05-04T02:34:12.184Z,0.00
2023-05-04T02:35:12.150Z,0.00
2023-05-04T02:36:12.181Z,0.00
2023-05-04T02:37:12.133Z,0.00
2023-05-04T02:38:12.127Z,0.00
2023-05-04T02:39:12.123Z,0.00
2023-05-04T02:40:12.110Z,0.00
2023-05-04T02:41:12.102Z,0.00
2023-05-04T02:42:12.088Z,0.00
2023-05-04T02:43:12.068Z,0.00
2023-05-04T02:44:12.070Z,0.00
2023-05-04T02:45:12.073Z,0.00
2023-05-04T02:46:12.213Z,0.00
2023-05-04T02:47:12.021Z,0.00
2023-05-04T02:48:12.029Z,0.00
2023-05-04T02:49:12.012Z,0.00
2023-05-04T02:50:12.014Z,0.00
2023-05-04T02:51:12.012Z,0.00
2023-05-04T02:52:11.989Z,0.00
2023-05-04T02:53:11.969Z,0.00
2023-05-04T02:54:11.962Z,0.00
2023-05-04T02:55:11.949Z,0.00
2023-05-04T02:56:11.947Z,0.00
2023-05-04T02:57:11.920Z,0.00
2023-05-04T02:58:11.932Z,0.00
2023-05-04T02:59:11.906Z,0.00
2023-05-04T03:00:11.909Z,0.00
2023-05-04T03:01:11.926Z,0.00
2023-05-04T03:02:11.875Z,0.00
2023-05-04T03:03:11.858Z,0.00
2023-05-04T03:04:11.901Z,0.00
2023-05-04T03:05:11.912Z,0.00
2023-05-04T03:06:11.828Z,0.00
2023-05-04T03:07:11.824Z,0.00
2023-05-04T03:08:11.812Z,0.00
2023-05-04T03:09:11.795Z,0.00
2023-05-04T03:10:11.797Z,0.00
2023-05-04T03:11:11.776Z,0.00
2023-05-04T03:12:11.796Z,0.00
2023-05-04T03:13:11.796Z,0.00
2023-05-04T03:14:11.761Z,0.00
2023-05-04T03:15:11.726Z,0.00
2023-05-04T03:16:11.815Z,0.00
2023-05-04T03:17:11.705Z,0.00
2023-05-04T03:18:11.742Z,0.00
2023-05-04T03:19:11.717Z,0.00
2023-05-04T03:20:11.673Z,0.00
2023-05-04T03:21:11.725Z,0.00
2023-05-04T03:22:11.660Z,0.00
2023-05-04T03:23:11.656Z,0.00
2023-05-04T03:24:11.689Z,0.00
2023-05-04T03:25:11.709Z,0.00
2023-05-04T03:26:11.611Z,0.00
2023-05-04T03:27:11.618Z,0.00
2023-05-04T03:28:11.591Z,0.00
2023-05-04T03:29:11.592Z,0.00
2023-05-04T03:30:11.524Z,2.00
2023-05-04T03:31:11.519Z,1.00
2023-05-04T03:32:11.611Z,0.00
2023-05-04T03:33:11.586Z,0.00
2023-05-04T03:34:11.563Z,0.00
2023-05-04T03:35:11.497Z,1.00
2023-05-04T03:36:11.486Z,1.00
2023-05-04T03:37:11.470Z,1.00
2023-05-04T03:38:11.441Z,1.00
2023-05-04T03:39:11.429Z,1.00
2023-05-04T03:40:11.433Z,2.00
2023-05-04T03:41:11.410Z,2.00
2023-05-04T03:42:11.401Z,2.00
2023-05-04T03:43:11.377Z,2.00
2023-05-04T03:44:11.392Z,2.00
2023-05-04T03:45:11.381Z,3.00
2023-05-04T03:46:11.430Z,5.00
2023-05-04T03:47:11.336Z,6.00
2023-05-04T03:48:11.430Z,6.00
2023-05-04T03:49:11.337Z,6.00
2023-05-04T03:50:11.319Z,8.00
2023-05-04T03:51:11.300Z,6.00
2023-05-04T03:52:11.310Z,5.00
2023-05-04T03:53:11.289Z,6.00
2023-05-04T03:54:11.272Z,6.00
2023-05-04T03:55:11.291Z,8.00
2023-05-04T03:56:11.235Z,10.00
2023-05-04T03:57:11.260Z,8.00
2023-05-04T03:58:11.237Z,9.00
2023-05-04T03:59:11.231Z,11.00
2023-05-04T04:00:11.211Z,12.00
2023-05-04T04:01:11.191Z,14.00
2023-05-04T04:02:11.216Z,13.00
2023-05-04T04:03:11.442Z,15.00
2023-05-04T04:04:11.218Z,18.00
2023-05-04T04:05:11.148Z,15.00
2023-05-04T04:06:11.155Z,14.00
2023-05-04T04:07:11.204Z,14.00
2023-05-04T04:08:11.131Z,18.00
2023-05-04T04:09:11.119Z,25.00
2023-05-04T04:10:11.203Z,24.00
2023-05-04T04:11:11.138Z,22.00
2023-05-04T04:12:11.082Z,23.00
2023-05-04T04:13:11.134Z,23.00
2023-05-04T04:14:11.082Z,24.00
2023-05-04T04:15:11.057Z,27.00
2023-05-04T04:16:11.123Z,30.00
2023-05-04T04:17:11.032Z,26.00
2023-05-04T04:18:11.029Z,32.00
2023-05-04T04:19:11.018Z,34.00
2023-05-04T04:20:10.991Z,34.00
2023-05-04T04:21:11.025Z,38.00
2023-05-04T04:22:10.988Z,38.00
2023-05-04T04:23:10.976Z,40.00
2023-05-04T04:24:11.047Z,43.00
2023-05-04T04:25:11.001Z,44.00
2023-05-04T04:26:11.009Z,48.00
2023-05-04T04:27:11.005Z,50.00
2023-05-04T04:28:10.939Z,50.00
2023-05-04T04:29:11.004Z,49.00
2023-05-04T04:30:10.889Z,52.00
2023-05-04T04:31:10.895Z,55.00
2023-05-04T04:32:10.866Z,56.00
2023-05-04T04:33:10.998Z,58.00
2023-05-04T04:34:10.869Z,62.00
2023-05-04T04:35:10.841Z,63.00
2023-05-04T04:36:10.831Z,63.00
2023-05-04T04:37:10.812Z,63.00
2023-05-04T04:38:10.798Z,69.00
2023-05-04T04:39:10.863Z,76.00
2023-05-04T04:40:10.860Z,75.00
2023-05-04T04:41:10.801Z,77.00
2023-05-04T04:42:10.768Z,75.00
2023-05-04T04:43:10.774Z,80.00
2023-05-04T04:44:10.736Z,83.00
2023-05-04T04:45:10.741Z,85.00
2023-05-04T04:46:10.798Z,90.00
2023-05-04T04:47:10.773Z,93.00
2023-05-04T04:48:10.741Z,99.00
2023-05-04T04:49:10.714Z,90.00
2023-05-04T04:50:10.692Z,92.00
2023-05-04T04:51:10.685Z,97.00
2023-05-04T04:52:12.301Z,94.00
2023-05-04T04:53:10.649Z,96.00
2023-05-04T04:54:10.789Z,94.00
2023-05-04T04:55:10.633Z,98.00
2023-05-04T04:56:10.607Z,100.00
2023-05-04T04:57:10.615Z,102.00
2023-05-04T04:58:10.593Z,109.00
2023-05-04T04:59:10.620Z,116.00
2023-05-04T05:00:10.635Z,113.00
2023-05-04T05:01:10.610Z,116.00
2023-05-04T05:02:10.550Z,118.00
2023-05-04T05:03:10.643Z,121.00
2023-05-04T05:04:10.596Z,123.00
2023-05-04T05:05:10.602Z,126.00
2023-05-04T05:06:10.511Z,126.00
2023-05-04T05:07:10.496Z,127.00
2023-05-04T05:08:10.485Z,125.00
2023-05-04T05:09:10.476Z,127.00
2023-05-04T05:10:10.465Z,130.00
2023-05-04T05:11:10.477Z,133.00
2023-05-04T05:12:10.439Z,132.00
2023-05-04T05:13:10.474Z,134.00
2023-05-04T05:14:10.432Z,138.00
2023-05-04T05:15:10.425Z,141.00
2023-05-04T05:16:10.467Z,142.00
2023-05-04T05:17:10.421Z,145.00
2023-05-04T05:18:10.424Z,147.00
2023-05-04T05:19:10.372Z,147.00
2023-05-04T05:20:10.356Z,153.00
2023-05-04T05:21:10.358Z,152.00
2023-05-04T05:22:10.339Z,151.00
2023-05-04T05:23:10.334Z,161.00
2023-05-04T05:24:10.313Z,163.00
2023-05-04T05:25:10.314Z,166.00
2023-05-04T05:26:10.296Z,168.00
2023-05-04T05:27:10.298Z,163.00
2023-05-04T05:28:10.287Z,163.00
2023-05-04T05:29:10.258Z,167.00
2023-05-04T05:30:10.235Z,169.00
2023-05-04T05:31:10.261Z,174.00
2023-05-04T05:32:10.225Z,174.00
2023-05-04T05:33:10.311Z,170.00
2023-05-04T05:34:10.225Z,174.00
2023-05-04T05:35:10.216Z,163.00
2023-05-04T05:36:10.176Z,167.00
2023-05-04T05:37:10.197Z,180.00
2023-05-04T05:38:10.156Z,182.00
2023-05-04T05:39:10.152Z,172.00
2023-05-04T05:40:10.160Z,171.00
2023-05-04T05:41:10.139Z,183.00
2023-05-04T05:42:10.127Z,183.00
2023-05-04T05:43:10.115Z,175.00
2023-05-04T05:44:11.695Z,178.00
2023-05-04T05:45:10.095Z,178.00
2023-05-04T05:46:10.096Z,176.00
2023-05-04T05:47:10.061Z,189.00
2023-05-04T05:48:10.080Z,194.00
2023-05-04T05:49:10.063Z,191.00
2023-05-04T05:50:10.028Z,184.00
2023-05-04T05:51:10.038Z,181.00
2023-05-04T05:52:10.041Z,183.00
2023-05-04T05:53:10.033Z,184.00
2023-05-04T05:54:10.173Z,184.00
2023-05-04T05:55:10.013Z,178.00
2023-05-04T05:56:09.988Z,181.00
2023-05-04T05:57:09.976Z,180.00
2023-05-04T05:58:09.966Z,189.00
2023-05-04T05:59:09.934Z,184.00
2023-05-04T06:00:09.917Z,185.00
2023-05-04T06:01:09.914Z,182.00
2023-05-04T06:02:09.946Z,179.00
2023-05-04T06:03:10.004Z,181.00
2023-05-04T06:04:09.998Z,183.00
2023-05-04T06:05:09.883Z,184.00
2023-05-04T06:06:09.882Z,181.00
2023-05-04T06:07:09.850Z,180.00
2023-05-04T06:08:09.843Z,183.00
2023-05-04T06:09:09.860Z,128.00
2023-05-04T06:10:09.816Z,229.00
2023-05-04T06:11:09.809Z,228.00
2023-05-04T06:12:09.794Z,234.00
2023-05-04T06:13:09.825Z,242.00
2023-05-04T06:14:09.765Z,234.00
2023-05-04T06:15:09.765Z,234.00
2023-05-04T06:16:09.865Z,238.00
2023-05-04T06:17:09.752Z,239.00
2023-05-04T06:18:09.778Z,242.00
2023-05-04T06:19:09.728Z,243.00
2023-05-04T06:20:09.718Z,246.00
2023-05-04T06:21:09.706Z,256.00
2023-05-04T06:22:09.706Z,243.00
2023-05-04T06:23:09.718Z,238.00
2023-05-04T06:24:09.677Z,241.00
2023-05-04T06:25:09.657Z,238.00
2023-05-04T06:26:09.643Z,245.00
2023-05-04T06:27:09.691Z,239.00
2023-05-04T06:28:09.627Z,249.00
2023-05-04T06:29:09.623Z,251.00
2023-05-04T06:30:09.616Z,252.00
2023-05-04T06:31:09.630Z,252.00
2023-05-04T06:32:09.657Z,250.00
2023-05-04T06:33:09.634Z,252.00
2023-05-04T06:34:09.584Z,253.00
2023-05-04T06:35:09.584Z,258.00
2023-05-04T06:36:09.539Z,260.00
2023-05-04T06:37:09.530Z,257.00
2023-05-04T06:38:09.536Z,258.00
2023-05-04T06:39:09.585Z,266.00
2023-05-04T06:40:09.704Z,273.00
2023-05-04T06:41:09.494Z,275.00
2023-05-04T06:42:09.460Z,265.00
2023-05-04T06:43:09.498Z,276.00
2023-05-04T06:44:09.472Z,272.00
2023-05-04T06:45:09.446Z,282.00
2023-05-04T06:46:09.513Z,278.00
2023-05-04T06:47:09.421Z,281.00
2023-05-04T06:48:09.452Z,283.00
2023-05-04T06:49:09.438Z,290.00
2023-05-04T06:50:09.404Z,289.00
2023-05-04T06:51:09.400Z,288.00
2023-05-04T06:52:09.356Z,280.00
2023-05-04T06:53:09.367Z,283.00
2023-05-04T06:54:09.332Z,279.00
2023-05-04T06:55:09.404Z,286.00
2023-05-04T06:56:09.331Z,283.00
2023-05-04T06:57:09.319Z,282.00
2023-05-04T06:58:09.301Z,284.00
2023-05-04T06:59:09.302Z,278.00
2023-05-04T07:00:09.301Z,283.00
2023-05-04T07:01:09.399Z,289.00
2023-05-04T07:02:09.270Z,281.00
2023-05-04T07:03:09.479Z,290.00
2023-05-04T07:04:09.426Z,294.00
2023-05-04T07:05:09.233Z,313.00
2023-05-04T07:06:09.260Z,317.00
2023-05-04T07:07:09.218Z,304.00
2023-05-04T07:08:09.234Z,267.00
2023-05-04T07:09:09.201Z,286.00
2023-05-04T07:10:09.182Z,296.00
2023-05-04T07:11:09.160Z,288.00
2023-05-04T07:12:09.162Z,296.00
2023-05-04T07:13:09.246Z,319.00
2023-05-04T07:14:10.480Z,335.00
2023-05-04T07:15:09.137Z,317.00
2023-05-04T07:16:09.284Z,322.00
2023-05-04T07:17:09.097Z,335.00
2023-05-04T07:18:09.152Z,341.00
2023-05-04T07:19:09.089Z,345.00
2023-05-04T07:20:09.077Z,344.00
2023-05-04T07:21:26.141Z,362.00
2023-05-04T07:22:09.052Z,361.00
2023-05-04T07:23:09.037Z,382.00
2023-05-04T07:24:09.019Z,350.00
2023-05-04T07:25:09.008Z,395.00
2023-05-04T07:26:08.991Z,361.00
2023-05-04T07:27:08.998Z,408.00
2023-05-04T07:28:08.987Z,411.00
2023-05-04T07:29:08.964Z,370.00
2023-05-04T07:30:08.994Z,383.00
2023-05-04T07:31:08.940Z,349.00
2023-05-04T07:32:09.071Z,382.00
2023-05-04T07:33:09.014Z,365.00
2023-05-04T07:34:09.012Z,392.00
2023-05-04T07:35:08.908Z,344.00
2023-05-04T07:36:08.919Z,355.00
2023-05-04T07:37:08.867Z,409.00
2023-05-04T07:38:08.856Z,415.00
2023-05-04T07:39:08.855Z,418.00
2023-05-04T07:40:08.861Z,429.00
2023-05-04T07:41:08.829Z,426.00
2023-05-04T07:42:08.857Z,435.00
2023-05-04T07:43:08.806Z,432.00
2023-05-04T07:44:08.849Z,449.00
2023-05-04T07:45:08.805Z,451.00
2023-05-04T07:46:08.842Z,447.00
2023-05-04T07:47:08.875Z,450.00
2023-05-04T07:48:08.805Z,444.00
2023-05-04T07:49:08.758Z,470.00
2023-05-04T07:50:08.966Z,438.00
2023-05-04T07:51:08.729Z,436.00
2023-05-04T07:52:08.736Z,451.00
2023-05-04T07:53:08.706Z,459.00
2023-05-04T07:54:08.699Z,442.00
2023-05-04T07:55:08.684Z,442.00
2023-05-04T07:56:08.717Z,456.00
2023-05-04T07:57:08.682Z,457.00
2023-05-04T07:58:08.653Z,465.00
2023-05-04T07:59:08.678Z,460.00
2023-05-04T08:00:08.633Z,451.00
2023-05-04T08:01:08.685Z,451.00
2023-05-04T08:02:08.638Z,444.00
2023-05-04T08:03:08.675Z,456.00
2023-05-04T08:04:08.608Z,447.00
2023-05-04T08:05:08.592Z,455.00
2023-05-04T08:06:08.585Z,450.00
2023-05-04T08:07:08.569Z,447.00
2023-05-04T08:08:08.671Z,449.00
2023-05-04T08:09:08.556Z,422.00
2023-05-04T08:10:08.528Z,426.00
2023-05-04T08:11:19.139Z,437.00
2023-05-04T08:12:08.534Z,455.00
2023-05-04T08:13:08.546Z,411.00
2023-05-04T08:14:08.557Z,461.00
2023-05-04T08:15:08.478Z,454.00
2023-05-04T08:16:08.508Z,464.00
2023-05-04T08:17:08.485Z,440.00
2023-05-04T08:18:08.439Z,435.00
2023-05-04T08:19:08.460Z,441.00
2023-05-04T08:20:08.785Z,453.00
2023-05-04T08:21:08.412Z,437.00
2023-05-04T08:22:08.410Z,452.00
2023-05-04T08:23:08.399Z,467.00
2023-05-04T08:24:08.393Z,477.00
2023-05-04T08:25:08.450Z,466.00
2023-05-04T08:26:08.536Z,444.00
2023-05-04T08:27:09.945Z,451.00
2023-05-04T08:28:08.376Z,408.00
2023-05-04T08:29:08.333Z,418.00
2023-05-04T08:30:08.325Z,444.00
2023-05-04T08:31:08.315Z,422.00
2023-05-04T08:32:08.354Z,433.00
2023-05-04T08:33:08.321Z,422.00
2023-05-04T08:34:08.292Z,418.00
2023-05-04T08:35:08.265Z,411.00
2023-05-04T08:36:08.249Z,388.00
2023-05-04T08:37:08.267Z,380.00
2023-05-04T08:38:08.221Z,385.00
2023-05-04T08:39:08.227Z,380.00
2023-05-04T08:40:08.217Z,388.00
2023-05-04T08:41:08.221Z,382.00
2023-05-04T08:42:08.195Z,392.00
2023-05-04T08:43:08.170Z,403.00
2023-05-04T08:44:08.190Z,419.00
2023-05-04T08:45:08.182Z,431.00
2023-05-04T08:46:08.143Z,446.00
2023-05-04T08:47:08.127Z,438.00
2023-05-04T08:48:08.172Z,463.00
2023-05-04T08:49:08.133Z,393.00
2023-05-04T08:50:08.123Z,435.00
2023-05-04T08:51:08.083Z,445.00
2023-05-04T08:52:08.096Z,394.00
2023-05-04T08:53:08.062Z,412.00
2023-05-04T08:54:08.050Z,404.00
2023-05-04T08:55:08.051Z,416.00
2023-05-04T08:56:08.043Z,438.00
2023-05-04T08:57:08.102Z,435.00
2023-05-04T08:58:08.038Z,417.00
2023-05-04T08:59:08.025Z,415.00
2023-05-04T09:00:07.992Z,421.00
2023-05-04T09:01:08.106Z,444.00
2023-05-04T09:02:07.978Z,455.00
2023-05-04T09:03:08.097Z,457.00
2023-05-04T09:04:07.987Z,437.00
2023-05-04T09:05:07.947Z,467.00
2023-05-04T09:06:07.929Z,441.00
2023-05-04T09:07:07.901Z,450.00
2023-05-04T09:08:07.899Z,442.00
2023-05-04T09:09:07.894Z,420.00
2023-05-04T09:10:07.899Z,463.00
2023-05-04T09:11:07.873Z,437.00
2023-05-04T09:12:07.881Z,450.00
2023-05-04T09:13:07.919Z,436.00
2023-05-04T09:14:07.854Z,459.00
2023-05-04T09:15:07.917Z,428.00
2023-05-04T09:16:07.835Z,432.00
2023-05-04T09:17:07.865Z,437.00
2023-05-04T09:18:07.844Z,456.00
2023-05-04T09:19:07.776Z,443.00
2023-05-04T09:20:07.775Z,434.00
2023-05-04T09:21:07.797Z,440.00
2023-05-04T09:22:07.757Z,444.00
2023-05-04T09:23:07.725Z,456.00
2023-05-04T09:24:07.737Z,457.00
2023-05-04T09:25:07.716Z,433.00
2023-05-04T09:26:07.711Z,443.00
2023-05-04T09:27:07.698Z,450.00
2023-05-04T09:28:07.706Z,446.00
2023-05-04T09:29:07.679Z,440.00
2023-05-04T09:30:07.696Z,434.00
2023-05-04T09:31:07.747Z,433.00
2023-05-04T09:32:07.665Z,435.00
2023-05-04T09:33:07.627Z,418.00
2023-05-04T09:34:07.649Z,423.00
2023-05-04T09:35:07.933Z,427.00
2023-05-04T09:36:07.598Z,438.00
2023-05-04T09:37:07.596Z,433.00
2023-05-04T09:38:07.574Z,443.00
2023-05-04T09:39:08.582Z,446.00
2023-05-04T09:40:07.562Z,442.00
2023-05-04T09:41:07.545Z,438.00
2023-05-04T09:42:07.538Z,434.00
2023-05-04T09:43:07.530Z,448.00
2023-05-04T09:44:07.514Z,451.00
2023-05-04T09:45:07.777Z,458.00
2023-05-04T09:46:07.515Z,451.00
2023-05-04T09:47:07.487Z,444.00
2023-05-04T09:48:07.461Z,454.00
2023-05-04T09:49:07.452Z,451.00
2023-05-04T09:50:07.487Z,451.00
2023-05-04T09:51:07.445Z,465.00
2023-05-04T09:52:07.448Z,462.00
2023-05-04T09:53:07.415Z,466.00
2023-05-04T09:54:07.424Z,471.00
2023-05-04T09:55:07.392Z,464.00
2023-05-04T09:56:08.396Z,470.00
2023-05-04T09:57:07.367Z,463.00
2023-05-04T09:58:07.364Z,460.00
2023-05-04T09:59:07.377Z,465.00
2023-05-04T10:00:07.342Z,468.00
2023-05-04T10:01:07.351Z,475.00
2023-05-04T10:02:14.576Z,472.00
2023-05-04T10:03:07.342Z,475.00
2023-05-04T10:04:07.309Z,462.00
2023-05-04T10:05:07.584Z,451.00
2023-05-04T10:06:07.298Z,455.00
2023-05-04T10:07:07.258Z,461.00
2023-05-04T10:08:07.248Z,474.00
2023-05-04T10:09:07.244Z,455.00
2023-05-04T10:10:07.238Z,452.00
2023-05-04T10:11:07.215Z,445.00
2023-05-04T10:12:07.205Z,433.00
2023-05-04T10:13:07.249Z,444.00
2023-05-04T10:14:07.182Z,449.00
2023-05-04T10:15:07.253Z,437.00
2023-05-04T10:16:07.190Z,432.00
2023-05-04T10:17:07.160Z,432.00
2023-05-04T10:18:07.146Z,428.00
2023-05-04T10:19:07.141Z,435.00
2023-05-04T10:20:07.134Z,441.00
2023-05-04T10:21:07.109Z,416.00
2023-05-04T10:22:07.113Z,431.00
2023-05-04T10:23:07.080Z,423.00
2023-05-04T10:24:07.095Z,422.00
2023-05-04T10:25:07.195Z,425.00
2023-05-04T10:26:07.054Z,413.00
2023-05-04T10:27:07.057Z,411.00
2023-05-04T10:28:07.052Z,410.00
2023-05-04T10:29:07.022Z,412.00
2023-05-04T10:30:07.013Z,415.00
2023-05-04T10:31:07.022Z,409.00
2023-05-04T10:32:07.050Z,406.00
2023-05-04T10:33:07.008Z,412.00
2023-05-04T10:34:06.974Z,410.00
2023-05-04T10:35:07.284Z,411.00
2023-05-04T10:36:06.957Z,411.00
2023-05-04T10:37:06.924Z,411.00
2023-05-04T10:38:06.931Z,409.00
2023-05-04T10:39:06.908Z,415.00
2023-05-04T10:40:08.065Z,415.00
2023-05-04T10:41:06.887Z,411.00
2023-05-04T10:42:06.940Z,409.00
2023-05-04T10:43:06.861Z,411.00
2023-05-04T10:44:06.879Z,414.00
2023-05-04T10:45:07.033Z,407.00
2023-05-04T10:46:06.931Z,407.00
2023-05-04T10:47:06.837Z,407.00
2023-05-04T10:48:06.884Z,413.00
2023-05-04T10:49:06.801Z,419.00
2023-05-04T10:50:06.824Z,414.00
2023-05-04T10:51:06.798Z,410.00
2023-05-04T10:52:06.804Z,413.00
2023-05-04T10:53:06.766Z,409.00
2023-05-04T10:54:06.757Z,418.00
2023-05-04T10:55:06.982Z,421.00
2023-05-04T10:56:06.741Z,423.00
2023-05-04T10:57:06.727Z,406.00
2023-05-04T10:58:06.806Z,409.00
2023-05-04T10:59:06.705Z,423.00
2023-05-04T11:00:06.686Z,408.00
2023-05-04T11:01:06.729Z,417.00
2023-05-04T11:02:06.788Z,416.00
2023-05-04T11:03:06.722Z,404.00
2023-05-04T11:04:06.656Z,407.00
2023-05-04T11:05:07.038Z,409.00
2023-05-04T11:06:06.634Z,406.00
2023-05-04T11:07:06.687Z,416.00
2023-05-04T11:08:06.633Z,416.00
2023-05-04T11:09:06.624Z,411.00
2023-05-04T11:10:06.591Z,409.00
2023-05-04T11:11:06.599Z,400.00
2023-05-04T11:12:06.564Z,409.00
2023-05-04T11:13:08.058Z,408.00
2023-05-04T11:14:06.538Z,418.00
2023-05-04T11:15:06.837Z,428.00
2023-05-04T11:16:06.566Z,426.00
2023-05-04T11:17:19.773Z,445.00
2023-05-04T11:18:06.538Z,412.00
2023-05-04T11:19:06.523Z,416.00
2023-05-04T11:20:06.475Z,431.00
2023-05-04T11:21:06.483Z,421.00
2023-05-04T11:22:06.474Z,445.00
2023-05-04T11:23:06.505Z,435.00
2023-05-04T11:24:06.434Z,431.00
2023-05-04T11:25:06.560Z,427.00
2023-05-04T11:26:07.355Z,460.00
2023-05-04T11:27:06.424Z,423.00
2023-05-04T11:28:06.490Z,440.00
2023-05-04T11:29:06.402Z,409.00
2023-05-04T11:30:06.371Z,420.00
2023-05-04T11:31:06.417Z,420.00
2023-05-04T11:32:06.341Z,426.00
2023-05-04T11:33:06.349Z,429.00
2023-05-04T11:34:06.326Z,434.00
2023-05-04T11:35:06.674Z,431.00
2023-05-04T11:36:06.296Z,430.00
2023-05-04T11:37:06.281Z,416.00
2023-05-04T11:38:06.278Z,420.00
2023-05-04T11:39:06.289Z,437.00
2023-05-04T11:40:06.262Z,439.00
2023-05-04T11:41:06.257Z,450.00
2023-05-04T11:42:06.246Z,455.00
2023-05-04T11:43:06.234Z,445.00
2023-05-04T11:44:06.212Z,440.00
2023-05-04T11:45:06.369Z,422.00
2023-05-04T11:46:06.260Z,427.00
2023-05-04T11:47:06.206Z,505.00
2023-05-04T11:48:06.293Z,393.00
2023-05-04T11:49:06.167Z,369.00
2023-05-04T11:50:06.180Z,377.00
2023-05-04T11:51:06.149Z,380.00
2023-05-04T11:52:06.171Z,366.00
2023-05-04T11:53:06.112Z,380.00
2023-05-04T11:54:06.116Z,378.00
2023-05-04T11:55:06.331Z,397.00
2023-05-04T11:56:06.094Z,370.00
2023-05-04T11:57:06.089Z,388.00
2023-05-04T11:58:06.065Z,378.00
2023-05-04T11:59:06.053Z,365.00
2023-05-04T12:00:06.044Z,363.00
2023-05-04T12:01:06.073Z,358.00
2023-05-04T12:02:06.023Z,354.00
2023-05-04T12:03:06.172Z,372.00
2023-05-04T12:04:06.225Z,372.00
2023-05-04T12:05:06.217Z,378.00
2023-05-04T12:06:06.097Z,374.00
2023-05-04T12:07:05.991Z,369.00
2023-05-04T12:08:05.969Z,377.00
2023-05-04T12:09:05.982Z,369.00
2023-05-04T12:10:05.931Z,374.00
2023-05-04T12:11:05.917Z,361.00
2023-05-04T12:12:05.897Z,365.00
2023-05-04T12:13:05.919Z,369.00
2023-05-04T12:14:05.888Z,361.00
2023-05-04T12:15:06.166Z,361.00
2023-05-04T12:16:05.966Z,363.00
2023-05-04T12:17:05.873Z,371.00
2023-05-04T12:18:05.937Z,340.00
2023-05-04T12:19:05.856Z,332.00
2023-05-04T12:20:05.814Z,351.00
2023-05-04T12:21:05.832Z,347.00
2023-05-04T12:22:05.829Z,338.00
2023-05-04T12:23:05.782Z,349.00
2023-05-04T12:24:05.776Z,347.00
2023-05-04T12:25:05.956Z,338.00
2023-05-04T12:26:05.740Z,337.00
2023-05-04T12:27:05.763Z,332.00
2023-05-04T12:28:05.734Z,335.00
2023-05-04T12:29:05.713Z,352.00
2023-05-04T12:30:05.703Z,282.00
2023-05-04T12:31:05.690Z,413.00
2023-05-04T12:32:05.694Z,411.00
2023-05-04T12:33:05.867Z,416.00
2023-05-04T12:34:05.673Z,420.00
2023-05-04T12:35:05.881Z,412.00
2023-05-04T12:36:05.673Z,417.00
2023-05-04T12:37:05.624Z,406.00
2023-05-04T12:38:05.613Z,418.00
2023-05-04T12:39:05.613Z,409.00
2023-05-04T12:40:11.326Z,416.00
2023-05-04T12:41:05.592Z,404.00
2023-05-04T12:42:05.575Z,399.00
2023-05-04T12:43:05.564Z,423.00
2023-05-04T12:44:05.561Z,428.00
2023-05-04T12:45:05.782Z,424.00